Terminal Aerodrome Forecast
Issued by NWS Buffalo, NY

Home | Current Version | Previous Version | Text Only | Print | Product List | Glossary On
Versions: 1 2 3 4 5 6 7 8 9 10 11 12 13 14 15 16 17 18 19 20 21 22 23 24 25 26 27 28
000
FTUS41 KBUF 022100 AAB
TAFROC
TAF AMD
KROC 022115Z 0221/0318 28008KT P6SM -SHRA SCT030 BKN060
      TEMPO 0221/0223 6SM -RA BKN030
     FM030100 27005KT P6SM SCT030 BKN250
     FM031400 24006KT P6SM BKN050=

USA.gov is the U.S. government's official web portal to all federal, state and local government web resources and services.